createdAt,value
2022-08-28T00:00:46.836Z,995.54
2022-08-28T00:01:46.800Z,995.60
2022-08-28T00:02:46.866Z,995.58
2022-08-28T00:03:46.786Z,995.58
2022-08-28T00:04:46.944Z,995.57
2022-08-28T00:05:46.816Z,995.57
2022-08-28T00:06:46.765Z,995.61
2022-08-28T00:07:47.955Z,995.61
2022-08-28T00:08:47.750Z,995.64
2022-08-28T00:09:46.734Z,995.58
2022-08-28T00:10:46.755Z,995.66
2022-08-28T00:11:46.736Z,995.71
2022-08-28T00:12:46.710Z,995.66
2022-08-28T00:13:46.703Z,995.67
2022-08-28T00:14:46.712Z,995.67
2022-08-28T00:15:46.761Z,995.70
2022-08-28T00:16:46.682Z,995.63
2022-08-28T00:17:46.680Z,995.64
2022-08-28T00:18:47.102Z,995.68
2022-08-28T00:19:46.659Z,995.69
2022-08-28T00:20:46.676Z,995.71
2022-08-28T00:21:46.646Z,995.71
2022-08-28T00:22:46.640Z,995.71
2022-08-28T00:23:46.627Z,995.63
2022-08-28T00:24:46.623Z,995.66
2022-08-28T00:25:46.641Z,995.64
2022-08-28T00:26:46.619Z,995.64
2022-08-28T00:27:46.598Z,995.69
2022-08-28T00:28:46.589Z,995.62
2022-08-28T00:29:46.580Z,995.62
2022-08-28T00:30:46.606Z,995.68
2022-08-28T00:31:46.618Z,995.66
2022-08-28T00:32:46.557Z,995.55
2022-08-28T00:33:48.199Z,995.61
2022-08-28T00:34:47.543Z,995.60
2022-08-28T00:35:46.559Z,995.58
2022-08-28T00:36:46.534Z,995.60
2022-08-28T00:37:46.531Z,995.64
2022-08-28T00:38:46.515Z,995.58
2022-08-28T00:39:46.517Z,995.61
2022-08-28T00:40:46.556Z,995.60
2022-08-28T00:41:46.492Z,995.57
2022-08-28T00:42:46.484Z,995.59
2022-08-28T00:43:46.474Z,995.61
2022-08-28T00:44:46.475Z,995.63
2022-08-28T00:45:46.491Z,995.67
2022-08-28T00:46:46.511Z,995.64
2022-08-28T00:47:46.447Z,995.66
2022-08-28T00:48:46.438Z,995.60
2022-08-28T00:49:46.429Z,995.66
2022-08-28T00:50:46.420Z,995.64
2022-08-28T00:51:46.439Z,995.63
2022-08-28T00:52:46.403Z,995.65
2022-08-28T00:53:46.400Z,995.65
2022-08-28T00:54:58.936Z,995.65
2022-08-28T00:55:47.375Z,995.57
2022-08-28T00:56:46.394Z,995.62
2022-08-28T00:57:46.366Z,995.59
2022-08-28T00:58:46.355Z,995.57
2022-08-28T00:59:46.345Z,995.56
2022-08-28T01:00:46.340Z,995.58
2022-08-28T01:01:46.554Z,995.55
2022-08-28T01:02:46.394Z,995.58
2022-08-28T01:03:46.316Z,995.64
2022-08-28T01:04:46.308Z,995.62
2022-08-28T01:05:46.301Z,995.55
2022-08-28T01:06:46.318Z,995.62
2022-08-28T01:07:46.282Z,995.60
2022-08-28T01:08:46.280Z,995.59
2022-08-28T01:09:46.275Z,995.63
2022-08-28T01:10:46.261Z,995.63
2022-08-28T01:11:46.278Z,995.59
2022-08-28T01:12:46.249Z,995.62
2022-08-28T01:13:46.238Z,995.67
2022-08-28T01:14:46.229Z,995.63
2022-08-28T01:15:46.248Z,995.63
2022-08-28T01:16:46.240Z,995.70
2022-08-28T01:17:46.207Z,995.72
2022-08-28T01:18:46.194Z,995.73
2022-08-28T01:19:46.190Z,995.67
2022-08-28T01:20:46.182Z,995.67
2022-08-28T01:21:46.198Z,995.66
2022-08-28T01:22:46.168Z,995.66
2022-08-28T01:23:46.155Z,995.67
2022-08-28T01:24:46.154Z,995.74
2022-08-28T01:25:46.132Z,995.68
2022-08-28T01:26:47.164Z,995.70
2022-08-28T01:27:46.121Z,995.74
2022-08-28T01:28:46.116Z,995.67
2022-08-28T01:29:48.012Z,995.70
2022-08-28T01:30:46.153Z,995.69
2022-08-28T01:31:46.124Z,995.70
2022-08-28T01:32:46.085Z,995.65
2022-08-28T01:33:46.078Z,995.66
2022-08-28T01:34:46.072Z,995.66
2022-08-28T01:35:46.063Z,995.67
2022-08-28T01:36:46.090Z,995.60
2022-08-28T01:37:46.047Z,995.66
2022-08-28T01:38:46.036Z,995.59
2022-08-28T01:39:46.034Z,995.63
2022-08-28T01:40:46.022Z,995.63
2022-08-28T01:41:47.038Z,995.64
2022-08-28T01:42:46.012Z,995.67
2022-08-28T01:43:46.002Z,995.65
2022-08-28T01:44:45.994Z,995.68
2022-08-28T01:45:45.988Z,995.69
2022-08-28T01:46:46.111Z,995.69
2022-08-28T01:47:45.972Z,995.67
2022-08-28T01:48:45.967Z,995.70
2022-08-28T01:49:45.981Z,995.64
2022-08-28T01:50:45.946Z,995.63
2022-08-28T01:51:45.971Z,995.66
2022-08-28T01:52:45.934Z,995.67
2022-08-28T01:53:46.632Z,995.62
2022-08-28T01:54:45.921Z,995.66
2022-08-28T01:55:45.910Z,995.62
2022-08-28T01:56:45.931Z,995.62
2022-08-28T01:58:18.401Z,995.58
2022-08-28T01:58:45.891Z,995.65
2022-08-28T01:59:45.882Z,995.62
2022-08-28T02:00:45.869Z,995.63
2022-08-28T02:01:45.955Z,995.64
2022-08-28T02:02:45.860Z,995.69
2022-08-28T02:03:45.944Z,995.58
2022-08-28T02:04:48.158Z,995.71
2022-08-28T02:05:46.840Z,995.72
2022-08-28T02:06:45.870Z,995.68
2022-08-28T02:07:45.823Z,995.77
2022-08-28T02:08:45.805Z,995.66
2022-08-28T02:09:46.816Z,995.73
2022-08-28T02:10:45.801Z,995.71
2022-08-28T02:11:46.812Z,995.79
2022-08-28T02:12:45.790Z,995.84
2022-08-28T02:13:45.778Z,995.77
2022-08-28T02:14:46.785Z,995.80
2022-08-28T02:15:45.906Z,995.74
2022-08-28T02:16:45.793Z,995.76
2022-08-28T02:17:45.747Z,995.73
2022-08-28T02:18:45.740Z,995.71
2022-08-28T02:19:45.737Z,995.71
2022-08-28T02:20:45.719Z,995.75
2022-08-28T02:21:45.731Z,995.71
2022-08-28T02:22:45.736Z,995.67
2022-08-28T02:23:45.710Z,995.74
2022-08-28T02:24:45.696Z,995.76
2022-08-28T02:25:45.692Z,995.72
2022-08-28T02:26:45.680Z,995.78
2022-08-28T02:27:45.703Z,995.77
2022-08-28T02:28:45.665Z,995.86
2022-08-28T02:29:45.663Z,995.74
2022-08-28T02:30:45.690Z,995.75
2022-08-28T02:31:45.654Z,995.81
2022-08-28T02:32:45.664Z,995.82
2022-08-28T02:33:45.629Z,995.75
2022-08-28T02:34:45.623Z,995.79
2022-08-28T02:35:45.609Z,995.82
2022-08-28T02:36:45.607Z,995.76
2022-08-28T02:37:45.638Z,995.79
2022-08-28T02:38:45.593Z,995.72
2022-08-28T02:39:45.585Z,995.79
2022-08-28T02:40:45.579Z,995.75
2022-08-28T02:41:45.568Z,995.78
2022-08-28T02:42:45.583Z,995.75
2022-08-28T02:43:45.568Z,995.80
2022-08-28T02:44:45.544Z,995.78
2022-08-28T02:45:45.569Z,995.80
2022-08-28T02:46:45.534Z,995.87
2022-08-28T02:47:45.549Z,995.85
2022-08-28T02:48:45.510Z,995.79
2022-08-28T02:49:45.505Z,995.81
2022-08-28T02:50:45.495Z,995.82
2022-08-28T02:51:45.494Z,995.81
2022-08-28T02:52:45.518Z,995.82
2022-08-28T02:53:45.477Z,995.86
2022-08-28T02:54:45.474Z,995.79
2022-08-28T02:55:45.460Z,995.81
2022-08-28T02:56:45.491Z,995.79
2022-08-28T02:57:45.464Z,995.86
2022-08-28T02:58:46.442Z,995.75
2022-08-28T02:59:45.432Z,995.83
2022-08-28T03:00:45.421Z,995.81
2022-08-28T03:01:45.458Z,995.77
2022-08-28T03:02:45.603Z,995.84
2022-08-28T03:03:45.396Z,995.81
2022-08-28T03:04:45.388Z,995.78
2022-08-28T03:05:45.387Z,995.81
2022-08-28T03:06:45.374Z,995.80
2022-08-28T03:07:45.396Z,995.84
2022-08-28T03:08:45.358Z,995.83
2022-08-28T03:09:45.345Z,995.85
2022-08-28T03:10:45.346Z,995.84
2022-08-28T03:11:45.333Z,995.80
2022-08-28T03:12:45.353Z,995.78
2022-08-28T03:13:45.316Z,995.81
2022-08-28T03:14:45.309Z,995.78
2022-08-28T03:15:45.311Z,995.80
2022-08-28T03:16:45.327Z,995.79
2022-08-28T03:17:45.312Z,995.83
2022-08-28T03:18:45.296Z,995.80
2022-08-28T03:19:45.282Z,995.79
2022-08-28T03:20:45.264Z,995.80
2022-08-28T03:21:45.258Z,995.81
2022-08-28T03:22:45.276Z,995.87
2022-08-28T03:23:45.245Z,995.83
2022-08-28T03:24:45.241Z,995.80
2022-08-28T03:25:45.235Z,995.85
2022-08-28T03:26:45.223Z,995.88
2022-08-28T03:27:45.252Z,995.89
2022-08-28T03:28:45.208Z,995.88
2022-08-28T03:29:45.203Z,995.92
2022-08-28T03:30:45.270Z,995.90
2022-08-28T03:31:45.178Z,995.92
2022-08-28T03:32:45.173Z,995.90
2022-08-28T03:33:45.190Z,995.92
2022-08-28T03:34:45.152Z,995.92
2022-08-28T03:35:45.151Z,995.94
2022-08-28T03:36:45.138Z,995.97
2022-08-28T03:37:45.162Z,995.93
2022-08-28T03:38:45.128Z,995.95
2022-08-28T03:39:45.126Z,995.95
2022-08-28T03:40:45.112Z,996.05
2022-08-28T03:41:45.103Z,996.03
2022-08-28T03:42:51.312Z,996.04
2022-08-28T03:43:46.095Z,996.04
2022-08-28T03:44:45.085Z,996.04
2022-08-28T03:45:45.125Z,996.06
2022-08-28T03:46:45.072Z,996.00
2022-08-28T03:47:45.079Z,996.11
2022-08-28T03:48:45.093Z,996.09
2022-08-28T03:49:45.042Z,996.06
2022-08-28T03:50:45.036Z,996.13
2022-08-28T03:51:45.025Z,996.11
2022-08-28T03:52:45.052Z,996.05
2022-08-28T03:53:45.018Z,996.15
2022-08-28T03:54:45.013Z,996.14
2022-08-28T03:55:44.991Z,996.10
2022-08-28T03:56:44.990Z,996.12
2022-08-28T03:57:45.005Z,996.14
2022-08-28T03:58:44.978Z,996.12
2022-08-28T03:59:44.963Z,996.09
2022-08-28T04:00:44.958Z,996.11
2022-08-28T04:01:45.004Z,996.04
2022-08-28T04:02:44.979Z,996.09
2022-08-28T04:03:45.000Z,996.05
2022-08-28T04:04:44.929Z,996.09
2022-08-28T04:05:44.917Z,996.06
2022-08-28T04:06:44.911Z,996.04
2022-08-28T04:07:44.935Z,996.07
2022-08-28T04:08:44.902Z,996.11
2022-08-28T04:09:44.883Z,996.14
2022-08-28T04:10:44.881Z,996.10
2022-08-28T04:11:44.869Z,996.17
2022-08-28T04:12:44.894Z,996.17
2022-08-28T04:13:44.851Z,996.12
2022-08-28T04:14:44.849Z,996.20
2022-08-28T04:15:44.838Z,996.12
2022-08-28T04:16:44.877Z,996.12
2022-08-28T04:17:44.866Z,996.06
2022-08-28T04:18:44.830Z,996.06
2022-08-28T04:19:44.815Z,996.04
2022-08-28T04:20:46.421Z,996.07
2022-08-28T04:21:44.806Z,996.13
2022-08-28T04:22:45.255Z,996.02
2022-08-28T04:23:44.782Z,996.08
2022-08-28T04:24:44.775Z,996.10
2022-08-28T04:25:44.764Z,996.03
2022-08-28T04:26:44.757Z,996.05
2022-08-28T04:27:44.779Z,996.00
2022-08-28T04:28:44.743Z,996.04
2022-08-28T04:29:44.737Z,996.05
2022-08-28T04:30:44.729Z,996.01
2022-08-28T04:31:44.746Z,996.06
2022-08-28T04:32:44.741Z,996.07
2022-08-28T04:33:44.707Z,996.07
2022-08-28T04:34:44.689Z,996.02
2022-08-28T04:35:44.691Z,996.07
2022-08-28T04:36:44.681Z,996.09
2022-08-28T04:37:44.674Z,996.08
2022-08-28T04:38:44.687Z,996.09
2022-08-28T04:39:44.657Z,996.12
2022-08-28T04:40:44.654Z,996.13
2022-08-28T04:41:44.635Z,996.05
2022-08-28T04:42:44.645Z,996.09
2022-08-28T04:43:44.649Z,996.14
2022-08-28T04:44:44.633Z,996.09
2022-08-28T04:45:44.678Z,996.03
2022-08-28T04:46:44.604Z,996.10
2022-08-28T04:47:44.593Z,996.09
2022-08-28T04:48:44.616Z,996.03
2022-08-28T04:49:44.585Z,996.08
2022-08-28T04:50:44.572Z,996.10
2022-08-28T04:51:44.565Z,996.09
2022-08-28T04:52:44.556Z,996.15
2022-08-28T04:53:44.576Z,996.14
2022-08-28T04:54:44.547Z,996.15
2022-08-28T04:55:53.919Z,996.09
2022-08-28T04:56:45.544Z,996.14
2022-08-28T04:57:44.518Z,996.05
2022-08-28T04:58:44.548Z,996.13
2022-08-28T04:59:44.502Z,996.09
2022-08-28T05:00:44.548Z,996.17
2022-08-28T05:01:44.499Z,996.13
2022-08-28T05:02:44.480Z,996.10
2022-08-28T05:03:44.497Z,996.14
2022-08-28T05:04:44.467Z,996.17
2022-08-28T05:05:44.462Z,996.19
2022-08-28T05:06:44.452Z,996.21
2022-08-28T05:07:45.012Z,996.22
2022-08-28T05:08:44.466Z,996.17
2022-08-28T05:09:44.431Z,996.26
2022-08-28T05:10:44.426Z,996.24
2022-08-28T05:11:44.415Z,996.24
2022-08-28T05:12:44.402Z,996.19
2022-08-28T05:13:44.426Z,996.22
2022-08-28T05:14:44.395Z,996.25
2022-08-28T05:15:44.385Z,996.27
2022-08-28T05:16:44.461Z,996.27
2022-08-28T05:17:44.373Z,996.25
2022-08-28T05:18:44.386Z,996.26
2022-08-28T05:19:44.358Z,996.27
2022-08-28T05:20:44.338Z,996.32
2022-08-28T05:21:45.340Z,996.33
2022-08-28T05:22:44.338Z,996.31
2022-08-28T05:23:44.354Z,996.31
2022-08-28T05:24:44.321Z,996.29
2022-08-28T05:25:44.316Z,996.29
2022-08-28T05:26:44.303Z,996.31
2022-08-28T05:27:44.311Z,996.33
2022-08-28T05:28:44.312Z,996.32
2022-08-28T05:29:44.277Z,996.32
2022-08-28T05:30:44.266Z,996.38
2022-08-28T05:31:44.304Z,996.32
2022-08-28T05:32:44.257Z,996.37
2022-08-28T05:33:44.275Z,996.37
2022-08-28T05:34:44.236Z,996.42
2022-08-28T05:35:44.229Z,996.33
2022-08-28T05:36:44.217Z,996.38
2022-08-28T05:37:44.213Z,996.39
2022-08-28T05:38:44.233Z,996.44
2022-08-28T05:39:44.216Z,996.43
2022-08-28T05:40:44.224Z,996.44
2022-08-28T05:41:44.202Z,996.42
2022-08-28T05:42:44.174Z,996.44
2022-08-28T05:43:44.201Z,996.49
2022-08-28T05:44:44.156Z,996.46
2022-08-28T05:45:44.222Z,996.47
2022-08-28T05:46:44.166Z,996.51
2022-08-28T05:47:44.138Z,996.54
2022-08-28T05:48:44.126Z,996.48
2022-08-28T05:49:44.434Z,996.48
2022-08-28T05:50:47.275Z,996.54
2022-08-28T05:51:44.103Z,996.44
2022-08-28T05:52:44.102Z,996.50
2022-08-28T05:53:44.087Z,996.57
2022-08-28T05:54:44.431Z,996.63
2022-08-28T05:55:44.073Z,996.60
2022-08-28T05:56:44.075Z,996.53
2022-08-28T05:57:44.058Z,996.57
2022-08-28T05:58:44.056Z,996.59
2022-08-28T05:59:44.072Z,996.62
2022-08-28T06:00:44.040Z,996.61
2022-08-28T06:01:44.113Z,996.65
2022-08-28T06:02:44.026Z,996.63
2022-08-28T06:03:44.047Z,996.67
2022-08-28T06:04:44.035Z,996.68
2022-08-28T06:05:43.999Z,996.61
2022-08-28T06:06:43.999Z,996.62
2022-08-28T06:07:43.983Z,996.64
2022-08-28T06:08:58.392Z,996.61
2022-08-28T06:09:44.999Z,996.60
2022-08-28T06:10:43.965Z,996.64
2022-08-28T06:11:46.124Z,996.67
2022-08-28T06:12:43.953Z,996.72
2022-08-28T06:13:43.950Z,996.65
2022-08-28T06:14:43.967Z,996.60
2022-08-28T06:15:44.028Z,996.71
2022-08-28T06:16:43.924Z,996.66
2022-08-28T06:17:43.919Z,996.59
2022-08-28T06:18:43.918Z,996.67
2022-08-28T06:19:43.928Z,996.66
2022-08-28T06:20:43.892Z,996.64
2022-08-28T06:21:43.889Z,996.69
2022-08-28T06:22:43.875Z,996.65
2022-08-28T06:23:43.873Z,996.66
2022-08-28T06:24:43.895Z,996.64
2022-08-28T06:25:43.873Z,996.65
2022-08-28T06:26:43.849Z,996.63
2022-08-28T06:27:43.839Z,996.63
2022-08-28T06:28:43.843Z,996.65
2022-08-28T06:29:43.846Z,996.67
2022-08-28T06:31:02.714Z,996.60
2022-08-28T06:31:45.843Z,996.67
2022-08-28T06:32:43.803Z,996.69
2022-08-28T06:33:43.791Z,996.71
2022-08-28T06:34:43.826Z,996.68
2022-08-28T06:35:43.787Z,996.72
2022-08-28T06:36:43.770Z,996.72
2022-08-28T06:37:43.761Z,996.75
2022-08-28T06:38:43.762Z,996.76
2022-08-28T06:39:43.773Z,996.74
2022-08-28T06:40:43.740Z,996.72
2022-08-28T06:41:43.732Z,996.74
2022-08-28T06:42:43.743Z,996.80
2022-08-28T06:43:43.717Z,996.79
2022-08-28T06:44:43.744Z,996.78
2022-08-28T06:45:43.718Z,996.87
2022-08-28T06:46:43.700Z,996.84
2022-08-28T06:47:43.701Z,996.81
2022-08-28T06:48:43.678Z,996.86
2022-08-28T06:49:43.701Z,996.79
2022-08-28T06:50:43.666Z,996.85
2022-08-28T06:51:43.660Z,996.88
2022-08-28T06:52:43.645Z,996.88
2022-08-28T06:53:43.646Z,996.85
2022-08-28T06:54:55.371Z,996.84
2022-08-28T06:55:44.627Z,996.86
2022-08-28T06:56:43.625Z,996.85
2022-08-28T06:57:43.616Z,996.85
2022-08-28T06:58:50.150Z,996.93
2022-08-28T06:59:44.626Z,996.92
2022-08-28T07:00:43.593Z,996.89
2022-08-28T07:01:43.642Z,996.89
2022-08-28T07:02:43.601Z,996.89
2022-08-28T07:03:44.369Z,996.91
2022-08-28T07:04:43.588Z,997.00
2022-08-28T07:05:43.551Z,996.95
2022-08-28T07:06:43.547Z,996.96
2022-08-28T07:07:43.545Z,996.99
2022-08-28T07:08:43.533Z,996.94
2022-08-28T07:09:43.562Z,996.95
2022-08-28T07:10:43.526Z,996.91
2022-08-28T07:11:43.516Z,997.01
2022-08-28T07:12:43.497Z,997.03
2022-08-28T07:13:43.503Z,996.99
2022-08-28T07:14:43.527Z,996.97
2022-08-28T07:15:43.522Z,997.02
2022-08-28T07:16:43.471Z,997.03
2022-08-28T07:17:43.475Z,997.05
2022-08-28T07:18:43.466Z,997.02
2022-08-28T07:19:43.456Z,997.09
2022-08-28T07:20:43.467Z,997.02
2022-08-28T07:21:43.539Z,997.08
2022-08-28T07:22:43.417Z,997.05
2022-08-28T07:23:43.419Z,997.06
2022-08-28T07:24:43.414Z,996.98
2022-08-28T07:25:43.435Z,996.94
2022-08-28T07:26:43.400Z,997.01
2022-08-28T07:27:43.397Z,997.04
2022-08-28T07:28:43.386Z,997.01
2022-08-28T07:29:43.400Z,997.05
2022-08-28T07:30:43.469Z,997.01
2022-08-28T07:31:43.359Z,997.01
2022-08-28T07:32:43.354Z,997.03
2022-08-28T07:33:43.345Z,996.97
2022-08-28T07:34:43.386Z,996.98
2022-08-28T07:35:43.334Z,996.95
2022-08-28T07:36:43.329Z,997.02
2022-08-28T07:37:43.308Z,997.07
2022-08-28T07:38:43.322Z,996.98
2022-08-28T07:39:43.326Z,997.02
2022-08-28T07:40:43.284Z,997.05
2022-08-28T07:41:43.329Z,997.11
2022-08-28T07:42:43.267Z,997.06
2022-08-28T07:43:43.260Z,997.12
2022-08-28T07:44:43.278Z,997.16
2022-08-28T07:45:43.306Z,997.10
2022-08-28T07:46:43.242Z,997.17
2022-08-28T07:47:43.237Z,997.16
2022-08-28T07:48:43.224Z,997.14
2022-08-28T07:49:43.245Z,997.16
2022-08-28T07:50:43.227Z,997.09
2022-08-28T07:51:43.259Z,997.14
2022-08-28T07:52:43.232Z,997.16
2022-08-28T07:53:43.196Z,997.16
2022-08-28T07:54:43.203Z,997.23
2022-08-28T07:55:43.172Z,997.21
2022-08-28T07:56:43.161Z,997.21
2022-08-28T07:58:16.048Z,997.27
2022-08-28T07:58:43.144Z,997.15
2022-08-28T07:59:43.171Z,997.15
2022-08-28T08:00:43.148Z,997.20
2022-08-28T08:01:43.203Z,997.23
2022-08-28T08:02:43.128Z,997.21
2022-08-28T08:03:43.215Z,997.26
2022-08-28T08:04:43.135Z,997.22
2022-08-28T08:05:43.094Z,997.28
2022-08-28T08:06:43.082Z,997.28
2022-08-28T08:07:43.907Z,997.25
2022-08-28T08:08:43.069Z,997.27
2022-08-28T08:09:43.096Z,997.31
2022-08-28T08:10:43.056Z,997.29
2022-08-28T08:11:43.048Z,997.28
2022-08-28T08:12:43.034Z,997.31
2022-08-28T08:13:43.031Z,997.32
2022-08-28T08:14:43.052Z,997.28
2022-08-28T08:15:44.000Z,997.36
2022-08-28T08:16:43.006Z,997.23
2022-08-28T08:17:43.003Z,997.28
2022-08-28T08:18:42.990Z,997.33
2022-08-28T08:19:43.030Z,997.32
2022-08-28T08:20:42.977Z,997.37
2022-08-28T08:21:42.968Z,997.25
2022-08-28T08:22:42.962Z,997.30
2022-08-28T08:23:42.964Z,997.42
2022-08-28T08:24:42.978Z,997.31
2022-08-28T08:25:42.932Z,997.26
2022-08-28T08:26:42.929Z,997.25
2022-08-28T08:27:43.235Z,997.28
2022-08-28T08:28:43.951Z,997.26
2022-08-28T08:29:42.904Z,997.24
2022-08-28T08:30:42.947Z,997.26
2022-08-28T08:31:42.891Z,997.32
2022-08-28T08:32:43.022Z,997.30
2022-08-28T08:33:42.877Z,997.27
2022-08-28T08:34:42.866Z,997.23
2022-08-28T08:35:42.883Z,997.25
2022-08-28T08:36:42.848Z,997.32
2022-08-28T08:37:42.841Z,997.28
2022-08-28T08:38:42.832Z,997.25
2022-08-28T08:39:42.823Z,997.26
2022-08-28T08:40:43.742Z,997.20
2022-08-28T08:41:42.810Z,997.26
2022-08-28T08:42:42.806Z,997.28
2022-08-28T08:43:42.798Z,997.26
2022-08-28T08:44:42.792Z,997.33
2022-08-28T08:45:42.802Z,997.31
2022-08-28T08:46:42.845Z,997.30
2022-08-28T08:47:42.767Z,997.30
2022-08-28T08:48:42.759Z,997.28
2022-08-28T08:49:42.755Z,997.29
2022-08-28T08:50:42.791Z,997.36
2022-08-28T08:51:42.739Z,997.34
2022-08-28T08:52:42.739Z,997.34
2022-08-28T08:53:42.753Z,997.32
2022-08-28T08:54:42.739Z,997.34
2022-08-28T08:55:42.737Z,997.39
2022-08-28T08:56:42.713Z,997.36
2022-08-28T08:57:42.691Z,997.33
2022-08-28T08:58:42.701Z,997.31
2022-08-28T08:59:42.678Z,997.30
2022-08-28T09:00:42.691Z,997.33
2022-08-28T09:01:42.697Z,997.35
2022-08-28T09:02:42.794Z,997.37
2022-08-28T09:03:44.266Z,997.39
2022-08-28T09:04:42.635Z,997.37
2022-08-28T09:05:42.650Z,997.38
2022-08-28T09:06:42.617Z,997.36
2022-08-28T09:07:42.624Z,997.36
2022-08-28T09:08:42.605Z,997.38
2022-08-28T09:09:42.605Z,997.32
2022-08-28T09:10:42.628Z,997.37
2022-08-28T09:11:42.583Z,997.45
2022-08-28T09:12:42.581Z,997.37
2022-08-28T09:13:42.564Z,997.38
2022-08-28T09:14:42.561Z,997.38
2022-08-28T09:15:42.776Z,997.33
2022-08-28T09:16:42.546Z,997.40
2022-08-28T09:17:42.627Z,997.40
2022-08-28T09:18:42.528Z,997.38
2022-08-28T09:19:42.554Z,997.40
2022-08-28T09:20:42.515Z,997.35
2022-08-28T09:21:42.507Z,997.39
2022-08-28T09:22:42.500Z,997.44
2022-08-28T09:23:42.489Z,997.37
2022-08-28T09:24:42.512Z,997.50
2022-08-28T09:25:42.475Z,997.51
2022-08-28T09:26:42.463Z,997.48
2022-08-28T09:27:42.567Z,997.48
2022-08-28T09:28:42.450Z,997.39
2022-08-28T09:29:42.442Z,997.45
2022-08-28T09:30:42.530Z,997.47
2022-08-28T09:31:42.435Z,997.45
2022-08-28T09:32:42.567Z,997.38
2022-08-28T09:33:42.411Z,997.33
2022-08-28T09:34:42.425Z,997.44
2022-08-28T09:35:42.431Z,997.35
2022-08-28T09:36:42.403Z,997.36
2022-08-28T09:37:42.390Z,997.36
2022-08-28T09:38:42.379Z,997.31
2022-08-28T09:39:45.590Z,997.39
2022-08-28T09:40:43.423Z,997.29
2022-08-28T09:41:42.361Z,997.37
2022-08-28T09:42:42.409Z,997.48
2022-08-28T09:43:42.339Z,997.35
2022-08-28T09:44:42.371Z,997.38
2022-08-28T09:45:42.349Z,997.40
2022-08-28T09:46:42.360Z,997.38
2022-08-28T09:47:46.782Z,997.38
2022-08-28T09:48:42.303Z,997.36
2022-08-28T09:49:42.311Z,997.32
2022-08-28T09:50:42.311Z,997.34
2022-08-28T09:51:42.278Z,997.35
2022-08-28T09:52:42.324Z,997.37
2022-08-28T09:53:42.261Z,997.41
2022-08-28T09:54:42.255Z,997.39
2022-08-28T09:55:42.277Z,997.39
2022-08-28T09:56:42.239Z,997.36
2022-08-28T09:57:42.236Z,997.38
2022-08-28T09:58:42.228Z,997.38
2022-08-28T09:59:42.223Z,997.38
2022-08-28T10:00:42.263Z,997.34
2022-08-28T10:01:44.835Z,997.32
2022-08-28T10:02:42.203Z,997.31
2022-08-28T10:03:42.212Z,997.24
2022-08-28T10:04:42.224Z,997.25
2022-08-28T10:05:42.199Z,997.29
2022-08-28T10:06:43.699Z,997.34
2022-08-28T10:07:42.159Z,997.44
2022-08-28T10:08:42.143Z,997.41
2022-08-28T10:09:47.872Z,997.34
2022-08-28T10:10:43.150Z,997.41
2022-08-28T10:11:44.387Z,997.38
2022-08-28T10:12:43.119Z,997.40
2022-08-28T10:13:42.104Z,997.40
2022-08-28T10:14:42.101Z,997.36
2022-08-28T10:15:43.560Z,997.39
2022-08-28T10:16:43.085Z,997.35
2022-08-28T10:17:42.088Z,997.33
2022-08-28T10:18:42.071Z,997.39
2022-08-28T10:19:42.067Z,997.44
2022-08-28T10:20:42.087Z,997.38
2022-08-28T10:21:42.048Z,997.41
2022-08-28T10:22:42.054Z,997.38
2022-08-28T10:23:42.122Z,997.32
2022-08-28T10:24:42.031Z,997.40
2022-08-28T10:25:42.042Z,997.38
2022-08-28T10:26:41.997Z,997.44
2022-08-28T10:27:43.017Z,997.30
2022-08-28T10:28:41.996Z,997.37
2022-08-28T10:29:41.992Z,997.41
2022-08-28T10:30:42.033Z,997.45
2022-08-28T10:31:41.980Z,997.48
2022-08-28T10:32:41.979Z,997.39
2022-08-28T10:33:41.953Z,997.46
2022-08-28T10:34:41.963Z,997.42
2022-08-28T10:35:41.976Z,997.44
2022-08-28T10:36:41.936Z,997.46
2022-08-28T10:37:41.927Z,997.41
2022-08-28T10:38:41.921Z,997.50
2022-08-28T10:39:41.928Z,997.45
2022-08-28T10:40:42.148Z,997.41
2022-08-28T10:41:42.519Z,997.44
2022-08-28T10:42:41.907Z,997.48
2022-08-28T10:43:41.952Z,997.46
2022-08-28T10:44:41.880Z,997.44
2022-08-28T10:45:41.883Z,997.39
2022-08-28T10:46:41.911Z,997.43
2022-08-28T10:47:41.850Z,997.35
2022-08-28T10:48:41.919Z,997.39
2022-08-28T10:49:41.853Z,997.49
2022-08-28T10:50:41.859Z,997.44
2022-08-28T10:51:44.276Z,997.41
2022-08-28T10:52:42.813Z,997.36
2022-08-28T10:53:41.799Z,997.33
2022-08-28T10:54:41.793Z,997.38
2022-08-28T10:55:41.818Z,997.33
2022-08-28T10:56:41.785Z,997.46
2022-08-28T10:57:41.777Z,997.32
2022-08-28T10:58:41.879Z,997.45
2022-08-28T10:59:42.387Z,997.37
2022-08-28T11:00:41.785Z,997.25
2022-08-28T11:01:41.890Z,997.30
2022-08-28T11:02:41.781Z,997.36
2022-08-28T11:03:41.730Z,997.31
2022-08-28T11:04:41.723Z,997.35
2022-08-28T11:05:49.432Z,997.33
2022-08-28T11:06:42.704Z,997.38
2022-08-28T11:07:41.702Z,997.38
2022-08-28T11:08:41.687Z,997.27
2022-08-28T11:09:41.690Z,997.37
2022-08-28T11:10:41.711Z,997.26
2022-08-28T11:11:41.668Z,997.33
2022-08-28T11:12:41.661Z,997.33
2022-08-28T11:13:41.649Z,997.27
2022-08-28T11:14:47.717Z,997.32
2022-08-28T11:15:42.662Z,997.34
2022-08-28T11:16:41.676Z,997.31
2022-08-28T11:17:41.626Z,997.31
2022-08-28T11:18:41.621Z,997.28
2022-08-28T11:19:44.505Z,997.31
2022-08-28T11:20:42.629Z,997.34
2022-08-28T11:21:41.611Z,997.40
2022-08-28T11:22:41.610Z,997.36
2022-08-28T11:23:41.580Z,997.39
2022-08-28T11:24:43.811Z,997.39
2022-08-28T11:25:41.588Z,997.43
2022-08-28T11:26:41.562Z,997.29
2022-08-28T11:27:41.555Z,997.41
2022-08-28T11:28:42.199Z,997.33
2022-08-28T11:29:41.531Z,997.38
2022-08-28T11:30:41.685Z,997.29
2022-08-28T11:31:41.518Z,997.38
2022-08-28T11:32:47.228Z,997.49
2022-08-28T11:33:42.501Z,997.36
2022-08-28T11:34:41.491Z,997.39
2022-08-28T11:35:41.523Z,997.39
2022-08-28T11:36:41.481Z,997.40
2022-08-28T11:37:41.473Z,997.38
2022-08-28T11:38:41.466Z,997.40
2022-08-28T11:39:41.454Z,997.33
2022-08-28T11:40:41.520Z,997.32
2022-08-28T11:41:41.466Z,997.29
2022-08-28T11:42:41.450Z,997.30
2022-08-28T11:43:41.423Z,997.31
2022-08-28T11:44:41.424Z,997.29
2022-08-28T11:45:41.476Z,997.29
2022-08-28T11:46:41.463Z,997.30
2022-08-28T11:47:41.396Z,997.35
2022-08-28T11:48:41.382Z,997.33
2022-08-28T11:49:41.379Z,997.34
2022-08-28T11:50:41.380Z,997.36
2022-08-28T11:51:41.391Z,997.30
2022-08-28T11:52:41.380Z,997.23
2022-08-28T11:53:41.365Z,997.29
2022-08-28T11:54:41.350Z,997.29
2022-08-28T11:55:41.336Z,997.25
2022-08-28T11:56:41.357Z,997.31
2022-08-28T11:57:41.322Z,997.25
2022-08-28T11:58:41.316Z,997.29
2022-08-28T11:59:41.305Z,997.27
2022-08-28T12:00:41.315Z,997.31
2022-08-28T12:01:41.322Z,997.22
2022-08-28T12:02:41.352Z,997.26
2022-08-28T12:03:41.273Z,997.32
2022-08-28T12:04:41.314Z,997.25
2022-08-28T12:05:41.270Z,997.20
2022-08-28T12:06:41.272Z,997.28
2022-08-28T12:07:41.244Z,997.32
2022-08-28T12:08:41.238Z,997.30
2022-08-28T12:09:41.335Z,997.26
2022-08-28T12:10:41.218Z,997.27
2022-08-28T12:11:41.300Z,997.23
2022-08-28T12:12:41.207Z,997.23
2022-08-28T12:13:41.199Z,997.19
2022-08-28T12:14:41.783Z,997.20
2022-08-28T12:15:41.243Z,997.16
2022-08-28T12:16:41.203Z,997.14
2022-08-28T12:17:41.164Z,997.12
2022-08-28T12:18:41.159Z,997.14
2022-08-28T12:19:52.095Z,997.10
2022-08-28T12:20:42.146Z,997.16
2022-08-28T12:21:41.159Z,997.20
2022-08-28T12:22:41.124Z,997.12
2022-08-28T12:23:41.133Z,997.06
2022-08-28T12:24:41.121Z,997.14
2022-08-28T12:25:41.101Z,997.17
2022-08-28T12:26:41.123Z,997.00
2022-08-28T12:27:41.088Z,996.94
2022-08-28T12:28:41.085Z,997.01